createdAt,value
2018-06-25T00:01:57.225Z,12.73
2018-06-25T00:04:25.532Z,13.60
2018-06-25T00:06:53.852Z,14.33
2018-06-25T00:09:22.166Z,12.58
2018-06-25T00:11:50.528Z,12.98
2018-06-25T00:14:18.844Z,13.32
2018-06-25T00:16:47.165Z,13.00
2018-06-25T00:19:15.493Z,13.58
2018-06-25T00:21:43.800Z,14.65
2018-06-25T00:24:12.132Z,15.50
2018-06-25T00:26:40.448Z,12.93
2018-06-25T00:29:08.776Z,14.63
2018-06-25T00:31:37.080Z,14.75
2018-06-25T00:34:05.565Z,12.35
2018-06-25T00:36:33.876Z,12.37
2018-06-25T00:39:02.208Z,14.85
2018-06-25T00:41:30.519Z,12.93
2018-06-25T00:43:58.846Z,13.60
2018-06-25T00:46:27.159Z,14.43
2018-06-25T00:48:55.479Z,14.25
2018-06-25T00:51:23.790Z,12.75
2018-06-25T00:53:52.133Z,13.83
2018-06-25T00:56:20.453Z,15.30
2018-06-25T00:59:00.049Z,13.48
2018-06-25T01:01:28.361Z,12.20
2018-06-25T01:03:56.804Z,11.93
2018-06-25T01:06:25.206Z,13.15
2018-06-25T01:08:53.749Z,13.85
2018-06-25T01:11:22.197Z,12.25
2018-06-25T01:13:50.540Z,14.38
2018-06-25T01:16:18.852Z,13.58
2018-06-25T01:18:47.180Z,13.30
2018-06-25T01:21:15.487Z,14.98
2018-06-25T01:23:43.567Z,15.10
2018-06-25T01:26:11.902Z,15.50
2018-06-25T01:28:40.236Z,16.95
2018-06-25T01:31:08.544Z,18.32
2018-06-25T01:33:36.868Z,16.55
2018-06-25T01:36:05.205Z,15.45
2018-06-25T01:38:33.545Z,13.88
2018-06-25T01:41:01.865Z,14.15
2018-06-25T01:43:30.212Z,16.02
2018-06-25T01:45:58.525Z,15.60
2018-06-25T01:48:26.861Z,14.73
2018-06-25T01:50:55.171Z,14.18
2018-06-25T01:53:23.497Z,14.23
2018-06-25T01:55:51.805Z,14.07
2018-06-25T01:58:20.136Z,13.32
2018-06-25T02:00:48.449Z,14.00
2018-06-25T02:03:16.772Z,12.30
2018-06-25T02:05:45.090Z,11.95
2018-06-25T02:08:13.416Z,10.68
2018-06-25T02:10:41.738Z,10.65
2018-06-25T02:13:10.085Z,9.33
2018-06-25T02:15:38.396Z,9.93
2018-06-25T02:18:06.736Z,8.45
2018-06-25T02:20:35.986Z,8.30
2018-06-25T02:23:04.394Z,7.85
2018-06-25T02:25:32.696Z,9.83
2018-06-25T02:28:01.022Z,8.68
2018-06-25T02:30:29.332Z,8.38
2018-06-25T02:32:57.717Z,8.50
2018-06-25T02:35:25.995Z,9.90
2018-06-25T02:37:54.294Z,8.75
2018-06-25T02:40:22.617Z,9.00
2018-06-25T02:42:50.942Z,9.58
2018-06-25T02:45:19.281Z,10.48
2018-06-25T02:47:47.590Z,11.73
2018-06-25T02:50:15.928Z,12.05
2018-06-25T02:52:44.229Z,12.63
2018-06-25T02:55:12.307Z,14.35
2018-06-25T02:57:40.622Z,13.78
2018-06-25T03:00:08.979Z,14.07
2018-06-25T03:02:37.302Z,13.20
2018-06-25T03:05:05.633Z,14.45
2018-06-25T03:07:33.944Z,14.07
2018-06-25T03:10:02.297Z,15.70
2018-06-25T03:12:30.649Z,14.98
2018-06-25T03:14:58.985Z,15.60
2018-06-25T03:17:27.333Z,16.00
2018-06-25T03:19:55.740Z,15.72
2018-06-25T03:22:24.144Z,14.73
2018-06-25T03:24:52.473Z,16.45
2018-06-25T03:27:20.779Z,16.48
2018-06-25T03:29:49.110Z,19.27
2018-06-25T03:32:17.412Z,15.32
2018-06-25T03:34:45.736Z,14.80
2018-06-25T03:37:14.049Z,14.73
2018-06-25T03:39:42.368Z,13.65
2018-06-25T03:42:10.677Z,14.90
2018-06-25T03:44:39.000Z,14.73
2018-06-25T03:47:07.312Z,15.55
2018-06-25T03:49:35.636Z,14.65
2018-06-25T03:52:03.948Z,13.38
2018-06-25T03:54:32.272Z,11.15
2018-06-25T03:57:00.572Z,11.30
2018-06-25T03:59:28.892Z,11.53
2018-06-25T04:01:57.288Z,10.60
2018-06-25T04:04:25.729Z,11.25
2018-06-25T04:06:54.037Z,12.70
2018-06-25T04:09:22.360Z,12.55
2018-06-25T04:11:50.692Z,11.10
2018-06-25T04:14:19.026Z,10.53
2018-06-25T04:16:47.333Z,11.38
2018-06-25T04:19:15.656Z,10.10
2018-06-25T04:21:43.960Z,11.20
2018-06-25T04:24:12.036Z,11.50
2018-06-25T04:26:40.096Z,10.60
2018-06-25T04:29:08.428Z,12.20
2018-06-25T04:31:36.728Z,11.43
2018-06-25T04:34:05.097Z,10.38
2018-06-25T04:36:33.408Z,11.25
2018-06-25T04:39:01.732Z,12.50
2018-06-25T04:41:30.044Z,13.53
2018-06-25T04:43:58.399Z,12.25
2018-06-25T04:46:26.708Z,12.80
2018-06-25T04:48:55.029Z,12.03
2018-06-25T04:51:23.119Z,9.90
2018-06-25T04:53:51.424Z,9.88
2018-06-25T04:56:19.760Z,11.35
2018-06-25T04:58:48.077Z,10.88
2018-06-25T05:01:16.419Z,10.50
2018-06-25T05:03:44.728Z,12.05
2018-06-25T05:06:13.069Z,11.57
2018-06-25T05:08:41.380Z,10.68
2018-06-25T05:11:09.728Z,12.10
2018-06-25T05:13:38.049Z,11.00
2018-06-25T05:16:06.636Z,11.70
2018-06-25T05:18:34.940Z,13.98
2018-06-25T05:21:03.327Z,12.73
2018-06-25T05:23:31.760Z,17.60
2018-06-25T05:26:00.073Z,23.70
2018-06-25T05:28:28.388Z,24.82
2018-06-25T05:30:56.712Z,25.65
2018-06-25T05:33:25.028Z,27.70
2018-06-25T05:35:53.360Z,27.45
2018-06-25T05:38:21.663Z,26.12
2018-06-25T05:40:50.009Z,29.02
2018-06-25T05:43:18.313Z,25.70
2018-06-25T05:45:46.640Z,27.13
2018-06-25T05:48:14.948Z,24.55
2018-06-25T05:50:43.281Z,25.35
2018-06-25T05:53:11.612Z,26.60
2018-06-25T05:55:39.940Z,24.10
2018-06-25T05:58:08.305Z,21.95
2018-06-25T06:00:36.635Z,22.20
2018-06-25T06:03:04.962Z,23.00
2018-06-25T06:05:33.289Z,22.35
2018-06-25T06:08:01.600Z,22.87
2018-06-25T06:10:29.936Z,21.60
2018-06-25T06:12:58.263Z,22.67
2018-06-25T06:15:26.592Z,20.35
2018-06-25T06:17:54.902Z,19.17
2018-06-25T06:20:23.245Z,20.48
2018-06-25T06:22:51.553Z,19.40
2018-06-25T06:25:19.913Z,20.05
2018-06-25T06:27:48.233Z,18.73
2018-06-25T06:30:16.312Z,16.77
2018-06-25T06:32:44.621Z,17.00
2018-06-25T06:35:12.961Z,17.00
2018-06-25T06:37:41.284Z,18.20
2018-06-25T06:40:09.669Z,18.10
2018-06-25T06:42:37.948Z,19.90
2018-06-25T06:45:06.274Z,18.95
2018-06-25T06:47:34.584Z,19.55
2018-06-25T06:50:02.925Z,20.40
2018-06-25T06:52:31.229Z,20.65
2018-06-25T06:54:59.585Z,19.95
2018-06-25T06:57:27.916Z,18.62
2018-06-25T06:59:56.243Z,20.23
2018-06-25T07:02:24.618Z,18.03
2018-06-25T07:04:52.932Z,16.70
2018-06-25T07:07:21.269Z,16.97
2018-06-25T07:09:49.583Z,17.50
2018-06-25T07:12:17.936Z,17.23
2018-06-25T07:14:46.248Z,18.05
2018-06-25T07:17:14.585Z,18.30
2018-06-25T07:19:42.964Z,15.20
2018-06-25T07:22:11.285Z,14.57
2018-06-25T07:24:39.588Z,14.47
2018-06-25T07:27:07.904Z,14.47
2018-06-25T07:29:36.204Z,13.77
2018-06-25T07:32:04.562Z,13.80
2018-06-25T07:34:32.865Z,15.07
2018-06-25T07:37:01.228Z,16.90
2018-06-25T07:39:29.540Z,14.83
2018-06-25T07:41:57.872Z,14.40
2018-06-25T07:44:26.182Z,15.10
2018-06-25T07:46:54.508Z,15.57
2018-06-25T07:49:22.816Z,13.33
2018-06-25T07:51:51.145Z,12.33
2018-06-25T07:54:19.466Z,13.30
2018-06-25T07:56:47.793Z,12.90
2018-06-25T07:59:16.109Z,13.00
2018-06-25T08:01:44.436Z,14.93
2018-06-25T08:04:12.741Z,15.87
2018-06-25T08:06:41.064Z,15.10
2018-06-25T08:09:10.332Z,13.70
2018-06-25T08:11:38.423Z,13.93
2018-06-25T08:14:06.728Z,13.37
2018-06-25T08:16:35.755Z,15.50
2018-06-25T08:19:04.084Z,14.80
2018-06-25T08:21:32.408Z,17.03
2018-06-25T08:24:00.764Z,14.87
2018-06-25T08:26:29.100Z,14.40
2018-06-25T08:28:57.474Z,12.73
2018-06-25T08:31:25.808Z,13.03
2018-06-25T08:33:54.142Z,13.13
2018-06-25T08:36:22.489Z,14.20
2018-06-25T08:38:50.828Z,14.20
2018-06-25T08:41:19.160Z,13.37
2018-06-25T08:43:47.464Z,13.30
2018-06-25T08:46:15.825Z,13.30
2018-06-25T08:48:44.111Z,13.90
2018-06-25T08:51:12.432Z,9.60
2018-06-25T08:53:40.736Z,8.20
2018-06-25T08:56:09.052Z,8.30
2018-06-25T08:58:37.357Z,8.17
2018-06-25T09:01:05.677Z,9.13
2018-06-25T09:03:33.993Z,8.97
2018-06-25T09:06:02.345Z,9.60
2018-06-25T09:08:30.665Z,8.53
2018-06-25T09:10:58.964Z,8.63
2018-06-25T09:13:27.312Z,8.63
2018-06-25T09:15:55.625Z,8.00
2018-06-25T09:18:23.948Z,6.87
2018-06-25T09:20:52.245Z,7.60
2018-06-25T09:23:20.565Z,7.83
2018-06-25T09:25:48.884Z,6.87
2018-06-25T09:28:17.200Z,8.50
2018-06-25T09:30:45.500Z,7.03
2018-06-25T09:33:13.816Z,7.10
2018-06-25T09:35:42.124Z,7.20
2018-06-25T09:38:10.448Z,6.93
2018-06-25T09:40:38.780Z,6.60
2018-06-25T09:43:07.104Z,5.70
2018-06-25T09:45:35.404Z,6.73
2018-06-25T09:48:03.728Z,5.73
2018-06-25T09:50:32.085Z,6.57
2018-06-25T09:53:00.416Z,5.90
2018-06-25T09:55:28.717Z,6.00
2018-06-25T09:57:56.819Z,6.07
2018-06-25T10:00:30.514Z,6.80
2018-06-25T10:02:59.228Z,8.13
2018-06-25T10:05:27.530Z,8.43
2018-06-25T10:07:55.920Z,8.90
2018-06-25T10:10:24.222Z,8.30
2018-06-25T10:12:52.559Z,9.20
2018-06-25T10:15:20.865Z,8.63
2018-06-25T10:17:49.181Z,7.17
2018-06-25T10:20:17.484Z,7.03
2018-06-25T10:22:45.804Z,7.73
2018-06-25T10:25:14.117Z,8.07
2018-06-25T10:27:42.445Z,7.53
2018-06-25T10:30:10.753Z,7.30
2018-06-25T10:32:39.085Z,7.97
2018-06-25T10:35:07.386Z,7.77
2018-06-25T10:37:35.710Z,7.47
2018-06-25T10:40:04.043Z,7.60
2018-06-25T10:42:32.422Z,7.07
2018-06-25T10:45:00.712Z,6.83
2018-06-25T10:47:29.040Z,6.90
2018-06-25T10:49:57.332Z,6.33
2018-06-25T10:52:25.652Z,6.40
2018-06-25T10:54:53.952Z,6.60
2018-06-25T10:57:22.282Z,5.07
2018-06-25T10:59:50.708Z,5.50
2018-06-25T11:02:18.920Z,5.10
2018-06-25T11:04:47.217Z,5.03
2018-06-25T11:07:15.653Z,4.63
2018-06-25T11:09:43.867Z,4.60
2018-06-25T11:12:12.196Z,4.10
2018-06-25T11:14:40.500Z,4.30
2018-06-25T11:17:08.817Z,3.80
2018-06-25T11:19:37.128Z,4.07
2018-06-25T11:22:05.456Z,4.53
2018-06-25T11:24:33.761Z,5.80
2018-06-25T11:27:02.163Z,5.30
2018-06-25T11:29:30.400Z,5.63
2018-06-25T11:31:58.701Z,5.20
2018-06-25T11:34:27.066Z,5.30
2018-06-25T11:36:55.341Z,5.40
2018-06-25T11:39:23.648Z,6.10
2018-06-25T11:41:51.993Z,6.90
2018-06-25T11:44:20.336Z,6.33
2018-06-25T11:46:48.632Z,6.07
2018-06-25T11:49:16.945Z,7.40
2018-06-25T11:51:45.240Z,6.83
2018-06-25T11:54:13.570Z,7.47
2018-06-25T11:56:41.876Z,9.50
2018-06-25T11:59:10.188Z,9.03
2018-06-25T12:01:38.539Z,9.00
2018-06-25T12:04:06.893Z,7.40
2018-06-25T12:06:35.168Z,7.90
2018-06-25T12:09:03.941Z,7.70
2018-06-25T12:11:32.252Z,8.10
2018-06-25T12:14:00.626Z,9.10
2018-06-25T12:16:28.917Z,8.80
2018-06-25T12:18:57.250Z,8.30
2018-06-25T12:21:25.568Z,7.60
2018-06-25T12:23:53.880Z,8.77
2018-06-25T12:26:22.269Z,7.83
2018-06-25T12:28:50.664Z,6.60
2018-06-25T12:31:18.958Z,6.30
2018-06-25T12:33:47.278Z,6.20
2018-06-25T12:36:15.584Z,5.60
2018-06-25T12:38:44.208Z,5.70
2018-06-25T12:41:12.501Z,5.83
2018-06-25T12:43:40.817Z,3.83
2018-06-25T12:46:09.259Z,3.37
2018-06-25T12:48:37.768Z,3.70
2018-06-25T12:51:06.068Z,3.20
2018-06-25T12:53:34.457Z,4.83
2018-06-25T12:56:02.754Z,4.20
2018-06-25T12:58:31.072Z,4.37
2018-06-25T13:00:59.369Z,3.93
2018-06-25T13:03:27.680Z,3.87
2018-06-25T13:05:55.980Z,3.27
2018-06-25T13:08:24.296Z,3.67
2018-06-25T13:10:52.690Z,3.63
2018-06-25T13:13:20.977Z,4.37
2018-06-25T13:15:49.276Z,3.20
2018-06-25T13:18:17.603Z,3.53
2018-06-25T13:20:46.064Z,3.60
2018-06-25T13:23:14.302Z,3.70
2018-06-25T13:25:42.687Z,3.30
2018-06-25T13:28:11.029Z,3.30
2018-06-25T13:30:39.324Z,3.77
2018-06-25T13:33:07.676Z,2.93
2018-06-25T13:35:35.968Z,3.90
2018-06-25T13:38:04.296Z,3.13
2018-06-25T13:40:32.632Z,3.63
2018-06-25T13:43:00.930Z,3.77
2018-06-25T13:45:29.392Z,3.77
2018-06-25T13:47:57.672Z,3.87
2018-06-25T13:50:26.008Z,3.63
2018-06-25T13:52:54.326Z,3.60
2018-06-25T13:55:22.648Z,3.90
2018-06-25T13:57:50.976Z,4.13
2018-06-25T14:00:19.299Z,3.63
2018-06-25T14:02:47.587Z,3.73
2018-06-25T14:05:15.902Z,3.57
2018-06-25T14:07:44.202Z,3.90
2018-06-25T14:10:12.524Z,3.87
2018-06-25T14:12:40.846Z,4.40
2018-06-25T14:15:09.173Z,3.80
2018-06-25T14:17:38.280Z,4.00
2018-06-25T14:20:06.664Z,4.57
2018-06-25T14:22:34.974Z,4.27
2018-06-25T14:25:03.348Z,3.87
2018-06-25T14:27:37.188Z,4.87
2018-06-25T14:30:10.973Z,4.03
2018-06-25T14:32:39.263Z,4.47
2018-06-25T14:35:13.176Z,5.00
2018-06-25T14:37:41.569Z,4.80
2018-06-25T14:40:09.933Z,5.00
2018-06-25T14:42:38.250Z,4.97
2018-06-25T14:45:06.728Z,5.20
2018-06-25T14:47:34.984Z,5.30
2018-06-25T14:50:03.296Z,4.87
2018-06-25T14:52:31.643Z,4.83
2018-06-25T14:54:59.969Z,6.50
2018-06-25T16:55:34.144Z,5.40
2018-06-25T16:58:02.449Z,5.27
2018-06-25T17:00:30.870Z,5.40
2018-06-25T17:02:59.187Z,5.70
2018-06-25T17:05:27.621Z,5.50
2018-06-25T17:07:55.916Z,5.53
2018-06-25T17:10:24.235Z,6.33
2018-06-25T17:12:52.652Z,5.60
2018-06-25T17:15:20.964Z,5.50
2018-06-25T17:17:49.268Z,5.27
2018-06-25T17:20:17.603Z,5.13
2018-06-25T17:22:45.904Z,5.17
2018-06-25T17:25:14.290Z,4.80
2018-06-25T17:27:42.686Z,4.97
2018-06-25T17:30:11.000Z,5.87
2018-06-25T17:32:39.301Z,5.50
2018-06-25T17:35:07.684Z,5.40
2018-06-25T17:37:35.972Z,5.17
2018-06-25T17:40:04.838Z,4.83
2018-06-25T17:42:33.171Z,5.40
2018-06-25T17:45:01.505Z,5.07
2018-06-25T17:47:29.898Z,5.10
2018-06-25T17:49:58.208Z,5.93
2018-06-25T17:52:26.536Z,4.90
2018-06-25T17:54:54.853Z,5.10
2018-06-25T17:57:23.167Z,4.47
2018-06-25T17:59:51.488Z,4.73
2018-06-25T18:02:19.807Z,4.53
2018-06-25T18:04:48.174Z,4.50
2018-06-25T18:07:16.500Z,5.23
2018-06-25T18:09:44.797Z,4.23
2018-06-25T18:12:13.140Z,4.50
2018-06-25T18:14:41.443Z,4.83
2018-06-25T18:17:09.758Z,4.37
2018-06-25T18:19:38.052Z,4.77
2018-06-25T18:22:06.420Z,4.87
2018-06-25T18:24:34.726Z,4.20
2018-06-25T18:27:03.040Z,4.80
2018-06-25T18:29:31.625Z,4.60
2018-06-25T18:31:59.713Z,4.73
2018-06-25T18:34:28.000Z,4.83
2018-06-25T18:36:56.337Z,4.20
2018-06-25T18:39:24.649Z,4.40
2018-06-25T18:41:52.971Z,4.67
2018-06-25T18:44:21.346Z,4.77
2018-06-25T18:46:49.678Z,5.07
2018-06-25T18:49:18.161Z,5.43
2018-06-25T18:51:46.584Z,4.70
2018-06-25T18:54:15.162Z,4.70
2018-06-25T18:56:43.476Z,5.10
2018-06-25T18:59:12.395Z,4.97
2018-06-25T19:01:40.781Z,5.43
2018-06-25T19:04:09.116Z,5.17
2018-06-25T19:06:37.488Z,5.23
2018-06-25T19:09:08.333Z,5.00
2018-06-25T19:11:36.664Z,5.40
2018-06-25T19:14:05.115Z,4.90
2018-06-25T19:16:33.227Z,5.13
2018-06-25T19:19:01.972Z,5.03
2018-06-25T19:21:30.292Z,5.10
2018-06-25T19:23:58.616Z,5.60
2018-06-25T19:26:26.951Z,5.17
2018-06-25T19:28:55.260Z,5.00
2018-06-25T19:31:23.592Z,5.50
2018-06-25T19:33:51.901Z,5.30
2018-06-25T19:36:20.236Z,5.40
2018-06-25T19:38:48.548Z,6.30
2018-06-25T19:41:16.860Z,5.70
2018-06-25T19:43:45.160Z,4.90
2018-06-25T19:46:13.480Z,5.20
2018-06-25T19:48:41.779Z,5.87
2018-06-25T19:51:10.104Z,6.17
2018-06-25T19:53:38.407Z,5.43
2018-06-25T19:56:06.756Z,5.00
2018-06-25T19:58:35.084Z,5.70
2018-06-25T20:01:03.408Z,6.00
2018-06-25T20:03:31.740Z,5.90
2018-06-25T20:06:00.123Z,6.63
2018-06-25T20:08:28.449Z,9.10
2018-06-25T20:10:56.816Z,8.70
2018-06-25T20:13:24.953Z,7.40
2018-06-25T20:15:53.272Z,7.50
2018-06-25T20:18:21.628Z,9.20
2018-06-25T20:20:49.932Z,7.70
2018-06-25T20:23:18.251Z,8.00
2018-06-25T20:25:46.307Z,8.53
2018-06-25T20:28:14.645Z,7.83
2018-06-25T20:30:42.951Z,7.97
2018-06-25T20:33:11.272Z,8.30
2018-06-25T20:35:39.589Z,8.70
2018-06-25T20:38:09.128Z,9.07
2018-06-25T20:40:37.576Z,9.03
2018-06-25T20:43:05.948Z,10.10
2018-06-25T20:45:34.252Z,10.93
2018-06-25T20:48:02.580Z,10.03
2018-06-25T20:50:31.168Z,11.10
2018-06-25T20:52:59.493Z,10.73
2018-06-25T20:55:27.865Z,11.13
2018-06-25T20:57:56.036Z,11.80
2018-06-25T21:00:24.331Z,12.77
2018-06-25T21:02:52.672Z,12.17
2018-06-25T21:05:20.997Z,11.10
2018-06-25T21:07:49.361Z,12.20
2018-06-25T21:10:17.677Z,11.40
2018-06-25T21:12:46.024Z,12.30
2018-06-25T21:15:14.341Z,12.00
2018-06-25T21:17:42.776Z,12.40
2018-06-25T21:20:11.080Z,12.97
2018-06-25T21:22:39.408Z,12.67
2018-06-25T21:25:07.716Z,12.43
2018-06-25T21:27:36.062Z,13.87
2018-06-25T21:30:04.600Z,14.13
2018-06-25T21:32:32.933Z,14.37
2018-06-25T21:35:01.240Z,14.00
2018-06-25T21:37:29.565Z,13.60
2018-06-25T21:39:57.885Z,14.10
2018-06-25T21:42:26.211Z,12.87
2018-06-25T21:44:54.532Z,13.97
2018-06-25T21:47:22.867Z,12.30
2018-06-25T21:49:51.185Z,13.83
2018-06-25T21:52:19.529Z,13.77
2018-06-25T21:54:47.837Z,14.30
2018-06-25T21:57:16.164Z,11.90
2018-06-25T21:59:44.520Z,12.30
2018-06-25T22:02:12.846Z,10.50
2018-06-25T22:04:41.169Z,11.63
2018-06-25T22:07:09.501Z,12.43
2018-06-25T22:09:37.800Z,10.90
2018-06-25T22:12:06.455Z,10.87
2018-06-25T22:14:34.789Z,11.37
2018-06-25T22:17:03.126Z,11.17
2018-06-25T22:19:31.448Z,11.70
2018-06-25T22:21:59.759Z,10.60
2018-06-25T22:24:28.076Z,10.70
2018-06-25T22:26:56.384Z,11.10
2018-06-25T22:29:24.713Z,12.27
2018-06-25T22:31:53.026Z,11.20
2018-06-25T22:34:21.360Z,12.23
2018-06-25T22:36:49.688Z,10.03
2018-06-25T22:39:18.017Z,11.27
2018-06-25T22:41:46.324Z,9.53
2018-06-25T22:44:14.927Z,8.83
2018-06-25T22:46:44.039Z,10.50
2018-06-25T22:49:12.404Z,11.50
2018-06-25T22:51:40.711Z,10.70
2018-06-25T22:54:09.229Z,9.80
2018-06-25T22:56:37.540Z,10.03
2018-06-25T22:59:06.324Z,11.37
2018-06-25T23:01:34.629Z,12.00
2018-06-25T23:04:02.948Z,10.10
2018-06-25T23:06:31.321Z,12.50
2018-06-25T23:08:59.649Z,12.50
2018-06-25T23:11:27.968Z,9.70
2018-06-25T23:13:56.297Z,10.13
2018-06-25T23:16:24.600Z,10.77
2018-06-25T23:18:52.934Z,9.60
2018-06-25T23:21:21.257Z,10.77
2018-06-25T23:23:49.584Z,12.93
2018-06-25T23:26:17.905Z,11.27
2018-06-25T23:28:46.238Z,12.57
2018-06-25T23:31:14.545Z,13.70
2018-06-25T23:33:42.873Z,13.23
2018-06-25T23:36:10.924Z,12.63
2018-06-25T23:38:39.252Z,11.30
2018-06-25T23:41:07.572Z,11.93
2018-06-25T23:43:35.909Z,13.40
2018-06-25T23:46:04.219Z,14.90
2018-06-25T23:48:32.551Z,14.23
2018-06-25T23:51:00.860Z,13.50
2018-06-25T23:53:29.190Z,14.27
2018-06-25T23:55:57.496Z,13.67
2018-06-25T23:58:25.816Z,13.77
